sensor_id;sensor_type;location;lat;lon;timestamp;pressure;altitude;pressure_sealevel;temperature;humidity
19748;BME280;10032;51.386;12.516;2023-04-16T00:01:57;99974.25;;;11.43;100.00
19748;BME280;10032;51.386;12.516;2023-04-16T00:04:22;99976.41;;;11.41;100.00
19748;BME280;10032;51.386;12.516;2023-04-16T00:06:48;99979.38;;;11.40;100.00
19748;BME280;10032;51.386;12.516;2023-04-16T00:09:13;99976.66;;;11.40;100.00
19748;BME280;10032;51.386;12.516;2023-04-16T00:11:39;99982.91;;;11.40;100.00
19748;BME280;10032;51.386;12.516;2023-04-16T00:14:04;99984.00;;;11.39;100.00
19748;BME280;10032;51.386;12.516;2023-04-16T00:16:30;99994.84;;;11.39;100.00
19748;BME280;10032;51.386;12.516;2023-04-16T00:18:55;99988.59;;;11.39;100.00
19748;BME280;10032;51.386;12.516;2023-04-16T00:21:21;99994.28;;;11.37;100.00
19748;BME280;10032;51.386;12.516;2023-04-16T00:23:46;99990.75;;;11.37;100.00
19748;BME280;10032;51.386;12.516;2023-04-16T00:26:11;99991.84;;;11.36;100.00
19748;BME280;10032;51.386;12.516;2023-04-16T00:28:37;99987.50;;;11.35;100.00
19748;BME280;10032;51.386;12.516;2023-04-16T00:31:02;99996.69;;;11.34;100.00
19748;BME280;10032;51.386;12.516;2023-04-16T00:33:28;99996.97;;;11.32;100.00
19748;BME280;10032;51.386;12.516;2023-04-16T00:35:54;99994.50;;;11.31;100.00
19748;BME280;10032;51.386;12.516;2023-04-16T00:38:20;99993.13;;;11.28;100.00
19748;BME280;10032;51.386;12.516;2023-04-16T00:40:45;99992.00;;;11.24;100.00
19748;BME280;10032;51.386;12.516;2023-04-16T00:43:11;99992.00;;;11.24;100.00
19748;BME280;10032;51.386;12.516;2023-04-16T00:45:36;99987.41;;;11.25;100.00
19748;BME280;10032;51.386;12.516;2023-04-16T00:48:02;99987.91;;;11.22;100.00
19748;BME280;10032;51.386;12.516;2023-04-16T00:50:28;99988.94;;;11.16;100.00
19748;BME280;10032;51.386;12.516;2023-04-16T00:52:54;99988.63;;;11.12;100.00
19748;BME280;10032;51.386;12.516;2023-04-16T00:55:20;99991.09;;;11.14;100.00
19748;BME280;10032;51.386;12.516;2023-04-16T00:57:46;99988.94;;;11.16;100.00
19748;BME280;10032;51.386;12.516;2023-04-16T01:00:30;99991.41;;;11.17;100.00
19748;BME280;10032;51.386;12.516;2023-04-16T01:02:55;99983.75;;;11.14;100.00
19748;BME280;10032;51.386;12.516;2023-04-16T01:05:21;99985.97;;;11.17;100.00
19748;BME280;10032;51.386;12.516;2023-04-16T01:07:46;99990.25;;;11.13;100.00
19748;BME280;10032;51.386;12.516;2023-04-16T01:10:12;99992.94;;;11.08;100.00
19748;BME280;10032;51.386;12.516;2023-04-16T01:12:37;99999.44;;;11.07;100.00
19748;BME280;10032;51.386;12.516;2023-04-16T01:15:03;99990.16;;;11.03;100.00
19748;BME280;10032;51.386;12.516;2023-04-16T01:17:28;99991.78;;;11.04;100.00
19748;BME280;10032;51.386;12.516;2023-04-16T01:19:57;99994.75;;;11.03;100.00
19748;BME280;10032;51.386;12.516;2023-04-16T01:22:23;99998.28;;;11.03;100.00
19748;BME280;10032;51.386;12.516;2023-04-16T01:24:48;100015.63;;;11.02;100.00
19748;BME280;10032;51.386;12.516;2023-04-16T01:27:14;100023.78;;;11.02;100.00
19748;BME280;10032;51.386;12.516;2023-04-16T01:29:39;100014.00;;;11.01;100.00
19748;BME280;10032;51.386;12.516;2023-04-16T01:32:05;100020.47;;;10.95;100.00
19748;BME280;10032;51.386;12.516;2023-04-16T01:34:30;100017.34;;;10.87;100.00
19748;BME280;10032;51.386;12.516;2023-04-16T01:36:56;100008.69;;;10.85;100.00
19748;BME280;10032;51.386;12.516;2023-04-16T01:39:21;100017.63;;;10.85;100.00
19748;BME280;10032;51.386;12.516;2023-04-16T01:41:47;100014.41;;;10.88;100.00
19748;BME280;10032;51.386;12.516;2023-04-16T01:44:12;100018.75;;;10.89;100.00
19748;BME280;10032;51.386;12.516;2023-04-16T01:46:38;100021.19;;;10.91;100.00
19748;BME280;10032;51.386;12.516;2023-04-16T01:49:04;100020.47;;;10.95;100.00
19748;BME280;10032;51.386;12.516;2023-04-16T01:51:31;100018.00;;;10.94;100.00
19748;BME280;10032;51.386;12.516;2023-04-16T01:53:57;100024.16;;;10.89;100.00
19748;BME280;10032;51.386;12.516;2023-04-16T01:56:22;100026.88;;;10.89;100.00
19748;BME280;10032;51.386;12.516;2023-04-16T01:58:48;100030.72;;;10.93;100.00
19748;BME280;10032;51.386;12.516;2023-04-16T02:01:13;100028.00;;;10.93;100.00
19748;BME280;10032;51.386;12.516;2023-04-16T02:03:39;100025.34;;;10.98;100.00
19748;BME280;10032;51.386;12.516;2023-04-16T02:06:05;100032.41;;;10.99;100.00
19748;BME280;10032;51.386;12.516;2023-04-16T02:08:30;100026.97;;;10.99;100.00
19748;BME280;10032;51.386;12.516;2023-04-16T02:10:56;100028.91;;;10.99;100.00
19748;BME280;10032;51.386;12.516;2023-04-16T02:13:22;100029.16;;;10.97;100.00
19748;BME280;10032;51.386;12.516;2023-04-16T02:15:50;100025.59;;;10.97;100.00
19748;BME280;10032;51.386;12.516;2023-04-16T02:18:16;100029.97;;;10.98;100.00
19748;BME280;10032;51.386;12.516;2023-04-16T02:20:43;100026.97;;;10.99;100.00
19748;BME280;10032;51.386;12.516;2023-04-16T02:23:09;100031.31;;;10.95;100.00
19748;BME280;10032;51.386;12.516;2023-04-16T02:25:43;100031.31;;;10.95;100.00
19748;BME280;10032;51.386;12.516;2023-04-16T02:28:14;100030.72;;;10.93;100.00
19748;BME280;10032;51.386;12.516;2023-04-16T02:30:40;100040.38;;;10.84;100.00
19748;BME280;10032;51.386;12.516;2023-04-16T02:33:07;100036.31;;;10.87;100.00
19748;BME280;10032;51.386;12.516;2023-04-16T02:35:34;100042.09;;;10.90;100.00
19748;BME280;10032;51.386;12.516;2023-04-16T02:37:59;100039.94;;;10.92;100.00
19748;BME280;10032;51.386;12.516;2023-04-16T02:40:25;100041.06;;;10.96;100.00
19748;BME280;10032;51.386;12.516;2023-04-16T02:42:51;100044.84;;;10.95;100.00
19748;BME280;10032;51.386;12.516;2023-04-16T02:45:18;100043.78;;;10.96;100.00
19748;BME280;10032;51.386;12.516;2023-04-16T02:47:43;100043.78;;;10.96;100.00
19748;BME280;10032;51.386;12.516;2023-04-16T02:50:09;100041.63;;;10.98;100.00
19748;BME280;10032;51.386;12.516;2023-04-16T02:52:34;100043.53;;;10.98;100.00
19748;BME280;10032;51.386;12.516;2023-04-16T02:55:00;100051.97;;;11.01;100.00
19748;BME280;10032;51.386;12.516;2023-04-16T02:57:25;100053.59;;;11.02;100.00
19748;BME280;10032;51.386;12.516;2023-04-16T02:59:51;100053.59;;;11.02;100.00
19748;BME280;10032;51.386;12.516;2023-04-16T03:02:16;100048.97;;;11.03;100.00
19748;BME280;10032;51.386;12.516;2023-04-16T03:04:42;100055.47;;;11.02;100.00
19748;BME280;10032;51.386;12.516;2023-04-16T03:07:07;100053.00;;;11.00;100.00
19748;BME280;10032;51.386;12.516;2023-04-16T03:09:34;100056.81;;;10.99;100.00
19748;BME280;10032;51.386;12.516;2023-04-16T03:12:00;100056.81;;;10.99;100.00
19748;BME280;10032;51.386;12.516;2023-04-16T03:14:28;100057.09;;;10.98;100.00
19748;BME280;10032;51.386;12.516;2023-04-16T03:16:54;100055.16;;;10.98;100.00
19748;BME280;10032;51.386;12.516;2023-04-16T03:19:20;100059.50;;;10.99;100.00
19748;BME280;10032;51.386;12.516;2023-04-16T03:21:45;100057.88;;;10.98;100.00
19748;BME280;10032;51.386;12.516;2023-04-16T03:24:10;100063.31;;;10.98;100.00
19748;BME280;10032;51.386;12.516;2023-04-16T03:26:36;100063.31;;;10.98;100.00
19748;BME280;10032;51.386;12.516;2023-04-16T03:29:01;100067.09;;;10.97;100.00
19748;BME280;10032;51.386;12.516;2023-04-16T03:31:27;100070.06;;;10.96;100.00
19748;BME280;10032;51.386;12.516;2023-04-16T03:33:52;100075.47;;;10.96;100.00
19748;BME280;10032;51.386;12.516;2023-04-16T03:36:18;100073.00;;;10.94;100.00
19748;BME280;10032;51.386;12.516;2023-04-16T03:38:43;100075.16;;;10.92;100.00
19748;BME280;10032;51.386;12.516;2023-04-16T03:41:09;100073.28;;;10.93;100.00
19748;BME280;10032;51.386;12.516;2023-04-16T03:43:35;100070.81;;;10.91;100.00
19748;BME280;10032;51.386;12.516;2023-04-16T03:46:00;100073.53;;;10.91;100.00
19748;BME280;10032;51.386;12.516;2023-04-16T03:48:25;100080.59;;;10.92;100.00
19748;BME280;10032;51.386;12.516;2023-04-16T03:50:51;100080.59;;;10.92;100.00
19748;BME280;10032;51.386;12.516;2023-04-16T03:53:16;100080.59;;;10.92;100.00
19748;BME280;10032;51.386;12.516;2023-04-16T03:55:42;100075.66;;;10.89;100.00
19748;BME280;10032;51.386;12.516;2023-04-16T03:58:07;100087.34;;;10.90;100.00
19748;BME280;10032;51.386;12.516;2023-04-16T04:00:33;100088.66;;;10.87;100.00
19748;BME280;10032;51.386;12.516;2023-04-16T04:02:58;100083.22;;;10.87;100.00
19748;BME280;10032;51.386;12.516;2023-04-16T04:05:24;100089.50;;;10.88;100.00
19748;BME280;10032;51.386;12.516;2023-04-16T04:07:49;100095.72;;;10.88;100.00
19748;BME280;10032;51.386;12.516;2023-04-16T04:10:15;100092.50;;;10.91;100.00
19748;BME280;10032;51.386;12.516;2023-04-16T04:12:41;100103.09;;;10.93;100.00
19748;BME280;10032;51.386;12.516;2023-04-16T04:15:07;100103.09;;;10.93;100.00
19748;BME280;10032;51.386;12.516;2023-04-16T04:17:33;100105.81;;;10.93;100.00
19748;BME280;10032;51.386;12.516;2023-04-16T04:19:58;100106.13;;;10.96;100.00
19748;BME280;10032;51.386;12.516;2023-04-16T04:22:23;100105.28;;;10.96;100.00
19748;BME280;10032;51.386;12.516;2023-04-16T04:24:49;100107.44;;;10.94;100.00
19748;BME280;10032;51.386;12.516;2023-04-16T04:27:14;100115.56;;;10.94;100.00
19748;BME280;10032;51.386;12.516;2023-04-16T04:29:40;100113.66;;;10.94;100.00
19748;BME280;10032;51.386;12.516;2023-04-16T04:32:05;100117.44;;;10.93;100.00
19748;BME280;10032;51.386;12.516;2023-04-16T04:34:31;100114.75;;;10.93;100.00
19748;BME280;10032;51.386;12.516;2023-04-16T04:36:58;100116.91;;;10.91;100.00
19748;BME280;10032;51.386;12.516;2023-04-16T04:39:23;100120.09;;;10.88;100.00
19748;BME280;10032;51.386;12.516;2023-04-16T04:41:48;100117.38;;;10.88;100.00
19748;BME280;10032;51.386;12.516;2023-04-16T04:44:14;100123.06;;;10.87;100.00
19748;BME280;10032;51.386;12.516;2023-04-16T04:46:39;100122.81;;;10.88;100.00
19748;BME280;10032;51.386;12.516;2023-04-16T04:49:05;100128.22;;;10.88;100.00
19748;BME280;10032;51.386;12.516;2023-04-16T04:51:31;100131.53;;;10.90;100.00
19748;BME280;10032;51.386;12.516;2023-04-16T04:53:56;100132.34;;;10.91;100.00
19748;BME280;10032;51.386;12.516;2023-04-16T04:56:22;100136.94;;;10.90;100.00
19748;BME280;10032;51.386;12.516;2023-04-16T04:58:50;100140.47;;;10.91;100.00
19748;BME280;10032;51.386;12.516;2023-04-16T05:01:16;100144.00;;;10.91;100.00
19748;BME280;10032;51.386;12.516;2023-04-16T05:03:41;100143.16;;;10.91;100.00
19748;BME280;10032;51.386;12.516;2023-04-16T05:06:07;100145.63;;;10.92;100.00
19748;BME280;10032;51.386;12.516;2023-04-16T05:08:32;100151.06;;;10.92;100.00
19748;BME280;10032;51.386;12.516;2023-04-16T05:10:58;100152.69;;;10.93;100.00
19748;BME280;10032;51.386;12.516;2023-04-16T05:13:24;100151.06;;;10.92;100.00
19748;BME280;10032;51.386;12.516;2023-04-16T05:15:50;100153.78;;;10.92;100.00
19748;BME280;10032;51.386;12.516;2023-04-16T05:18:15;100153.78;;;10.92;100.00
19748;BME280;10032;51.386;12.516;2023-04-16T05:20:41;100153.78;;;10.92;100.00
19748;BME280;10032;51.386;12.516;2023-04-16T05:23:06;100161.59;;;10.89;100.00
19748;BME280;10032;51.386;12.516;2023-04-16T05:25:32;100160.28;;;10.91;100.00
19748;BME280;10032;51.386;12.516;2023-04-16T05:27:57;100168.16;;;10.93;100.00
19748;BME280;10032;51.386;12.516;2023-04-16T05:30:23;100170.88;;;10.93;100.00
19748;BME280;10032;51.386;12.516;2023-04-16T05:32:48;100170.59;;;10.94;100.00
19748;BME280;10032;51.386;12.516;2023-04-16T05:35:14;100172.50;;;10.94;100.00
19748;BME280;10032;51.386;12.516;2023-04-16T05:37:39;100175.28;;;10.99;100.00
19748;BME280;10032;51.386;12.516;2023-04-16T05:40:05;100178.00;;;10.99;100.00
19748;BME280;10032;51.386;12.516;2023-04-16T05:42:31;100183.13;;;11.00;100.00
19748;BME280;10032;51.386;12.516;2023-04-16T05:44:56;100175.28;;;10.99;100.00
19748;BME280;10032;51.386;12.516;2023-04-16T05:47:21;100180.41;;;11.00;100.00
19748;BME280;10032;51.386;12.516;2023-04-16T05:49:47;100179.94;;;11.03;100.00
19748;BME280;10032;51.386;12.516;2023-04-16T05:52:12;100186.50;;;11.07;100.00
19748;BME280;10032;51.386;12.516;2023-04-16T05:54:38;100189.69;;;11.04;100.00
19748;BME280;10032;51.386;12.516;2023-04-16T05:57:03;100190.28;;;11.06;100.00
19748;BME280;10032;51.386;12.516;2023-04-16T05:59:29;100195.19;;;11.09;100.00
19748;BME280;10032;51.386;12.516;2023-04-16T06:01:55;100192.00;;;11.12;100.00
19748;BME280;10032;51.386;12.516;2023-04-16T06:04:21;100192.31;;;11.16;100.00
19748;BME280;10032;51.386;12.516;2023-04-16T06:06:47;100204.53;;;11.18;100.00
19748;BME280;10032;51.386;12.516;2023-04-16T06:09:12;100200.19;;;11.17;100.00
19748;BME280;10032;51.386;12.516;2023-04-16T06:11:38;100195.31;;;11.19;100.00
19748;BME280;10032;51.386;12.516;2023-04-16T06:14:03;100207.31;;;11.23;100.00
19748;BME280;10032;51.386;12.516;2023-04-16T06:16:28;100206.47;;;11.23;100.00
19748;BME280;10032;51.386;12.516;2023-04-16T06:18:54;100208.44;;;11.27;100.00
19748;BME280;10032;51.386;12.516;2023-04-16T06:21:20;100205.47;;;11.29;100.00
19748;BME280;10032;51.386;12.516;2023-04-16T06:23:45;100204.66;;;11.28;100.00
19748;BME280;10032;51.386;12.516;2023-04-16T06:26:11;100210.88;;;11.29;100.00
19748;BME280;10032;51.386;12.516;2023-04-16T06:28:36;100212.56;;;11.30;100.00
19748;BME280;10032;51.386;12.516;2023-04-16T06:31:02;100218.84;;;11.35;100.00
19748;BME280;10032;51.386;12.516;2023-04-16T06:33:27;100220.47;;;11.36;100.00
19748;BME280;10032;51.386;12.516;2023-04-16T06:35:52;100223.00;;;11.43;100.00
19748;BME280;10032;51.386;12.516;2023-04-16T06:38:18;100223.00;;;11.43;100.00
19748;BME280;10032;51.386;12.516;2023-04-16T06:40:43;100223.56;;;11.45;100.00
19748;BME280;10032;51.386;12.516;2023-04-16T06:43:09;100230.72;;;11.51;100.00
19748;BME280;10032;51.386;12.516;2023-04-16T06:45:34;100232.59;;;11.50;100.00
19748;BME280;10032;51.386;12.516;2023-04-16T06:48:00;100232.28;;;11.47;100.00
19748;BME280;10032;51.386;12.516;2023-04-16T06:50:27;100236.16;;;11.51;100.00
19748;BME280;10032;51.386;12.516;2023-04-16T06:52:56;100239.25;;;11.59;100.00
19748;BME280;10032;51.386;12.516;2023-04-16T06:55:21;100234.94;;;11.63;100.00
19748;BME280;10032;51.386;12.516;2023-04-16T06:57:47;100238.72;;;11.62;100.00
19748;BME280;10032;51.386;12.516;2023-04-16T07:00:12;100242.28;;;11.63;100.00
19748;BME280;10032;51.386;12.516;2023-04-16T07:02:38;100239.31;;;11.64;100.00
19748;BME280;10032;51.386;12.516;2023-04-16T07:05:03;100237.47;;;11.70;100.00
19748;BME280;10032;51.386;12.516;2023-04-16T07:07:29;100237.53;;;11.75;100.00
19748;BME280;10032;51.386;12.516;2023-04-16T07:09:55;100242.16;;;11.74;100.00
19748;BME280;10032;51.386;12.516;2023-04-16T07:12:20;100238.91;;;11.77;100.00
19748;BME280;10032;51.386;12.516;2023-04-16T07:14:46;100238.34;;;11.75;100.00
19748;BME280;10032;51.386;12.516;2023-04-16T07:17:11;100259.41;;;11.68;100.00
19748;BME280;10032;51.386;12.516;2023-04-16T07:19:37;100251.88;;;11.70;100.00
19748;BME280;10032;51.386;12.516;2023-04-16T07:22:02;100259.41;;;11.68;100.00
19748;BME280;10032;51.386;12.516;2023-04-16T07:24:28;100261.41;;;11.73;100.00
19748;BME280;10032;51.386;12.516;2023-04-16T07:26:54;100255.19;;;11.77;100.00
19748;BME280;10032;51.386;12.516;2023-04-16T07:29:19;100268.47;;;11.74;100.00
19748;BME280;10032;51.386;12.516;2023-04-16T07:31:45;100269.78;;;11.71;100.00
19748;BME280;10032;51.386;12.516;2023-04-16T07:34:10;100279.50;;;11.67;100.00
19748;BME280;10032;51.386;12.516;2023-04-16T07:36:36;100279.00;;;11.70;100.00
19748;BME280;10032;51.386;12.516;2023-04-16T07:39:01;100272.50;;;11.71;100.00
19748;BME280;10032;51.386;12.516;2023-04-16T07:41:27;100273.06;;;11.73;100.00
19748;BME280;10032;51.386;12.516;2023-04-16T07:43:54;100274.72;;;11.74;100.00
19748;BME280;10032;51.386;12.516;2023-04-16T07:46:19;100279.00;;;11.70;100.00
19748;BME280;10032;51.386;12.516;2023-04-16T07:48:45;100287.22;;;11.75;100.00
19748;BME280;10032;51.386;12.516;2023-04-16T07:51:10;100286.13;;;11.76;100.00
19748;BME280;10032;51.386;12.516;2023-04-16T07:53:36;100292.63;;;11.75;100.00
19748;BME280;10032;51.386;12.516;2023-04-16T07:56:01;100291.81;;;11.75;100.00
19748;BME280;10032;51.386;12.516;2023-04-16T07:58:26;100288.31;;;11.79;100.00
19748;BME280;10032;51.386;12.516;2023-04-16T08:00:52;100296.47;;;11.79;100.00
19748;BME280;10032;51.386;12.516;2023-04-16T08:03:17;100295.41;;;11.80;100.00
19748;BME280;10032;51.386;12.516;2023-04-16T08:05:43;100301.41;;;11.82;100.00
19748;BME280;10032;51.386;12.516;2023-04-16T08:08:08;100306.34;;;11.85;100.00
19748;BME280;10032;51.386;12.516;2023-04-16T08:10:34;100299.00;;;11.86;100.00
19748;BME280;10032;51.386;12.516;2023-04-16T08:13:00;100298.81;;;11.92;100.00
19748;BME280;10032;51.386;12.516;2023-04-16T08:15:26;100307.00;;;11.97;100.00
19748;BME280;10032;51.386;12.516;2023-04-16T08:17:51;100304.66;;;12.06;100.00
19748;BME280;10032;51.386;12.516;2023-04-16T08:20:17;100312.56;;;12.07;100.00
19748;BME280;10032;51.386;12.516;2023-04-16T08:22:44;100315.16;;;11.97;100.00
19748;BME280;10032;51.386;12.516;2023-04-16T08:25:10;100316.53;;;12.00;100.00
19748;BME280;10032;51.386;12.516;2023-04-16T08:27:35;100318.22;;;12.06;100.00
19748;BME280;10032;51.386;12.516;2023-04-16T08:30:00;100318.22;;;12.06;100.00
19748;BME280;10032;51.386;12.516;2023-04-16T08:32:26;100328.25;;;12.05;100.00
19748;BME280;10032;51.386;12.516;2023-04-16T08:34:52;100326.50;;;11.94;100.00
19748;BME280;10032;51.386;12.516;2023-04-16T08:37:17;100334.09;;;11.92;100.00
19748;BME280;10032;51.386;12.516;2023-04-16T08:39:43;100338.84;;;11.80;100.00
19748;BME280;10032;51.386;12.516;2023-04-16T08:42:17;100341.69;;;11.69;100.00
19748;BME280;10032;51.386;12.516;2023-04-16T08:44:47;100347.94;;;11.69;100.00
19748;BME280;10032;51.386;12.516;2023-04-16T08:47:14;100343.56;;;11.68;100.00
19748;BME280;10032;51.386;12.516;2023-04-16T08:49:44;100347.94;;;11.69;100.00
19748;BME280;10032;51.386;12.516;2023-04-16T08:52:18;100352.84;;;11.72;100.00
19748;BME280;10032;51.386;12.516;2023-04-16T08:54:56;100357.50;;;11.77;100.00
19748;BME280;10032;51.386;12.516;2023-04-16T08:57:27;100359.50;;;11.81;100.00
19748;BME280;10032;51.386;12.516;2023-04-16T08:59:55;100359.81;;;11.85;100.00
19748;BME280;10032;51.386;12.516;2023-04-16T09:02:24;100356.84;;;11.86;100.00
19748;BME280;10032;51.386;12.516;2023-04-16T09:04:51;100357.91;;;11.85;100.00
19748;BME280;10032;51.386;12.516;2023-04-16T09:07:18;100371.22;;;11.87;100.00
19748;BME280;10032;51.386;12.516;2023-04-16T09:09:46;100368.00;;;11.90;100.00
19748;BME280;10032;51.386;12.516;2023-04-16T09:12:12;100368.06;;;11.95;100.00
19748;BME280;10032;51.386;12.516;2023-04-16T09:14:38;100369.72;;;11.96;100.00
19748;BME280;10032;51.386;12.516;2023-04-16T09:17:06;100370.53;;;11.96;100.00
19748;BME280;10032;51.386;12.516;2023-04-16T09:19:31;100373.31;;;12.01;100.00
19748;BME280;10032;51.386;12.516;2023-04-16T09:21:57;100374.94;;;12.02;100.00
19748;BME280;10032;51.386;12.516;2023-04-16T09:24:23;100380.63;;;12.01;100.00
19748;BME280;10032;51.386;12.516;2023-04-16T09:26:49;100380.06;;;11.99;100.00
19748;BME280;10032;51.386;12.516;2023-04-16T09:29:36;100384.13;;;11.96;100.00
19748;BME280;10032;51.386;12.516;2023-04-16T09:32:03;100390.88;;;11.94;100.00
19748;BME280;10032;51.386;12.516;2023-04-16T09:34:31;100388.41;;;11.92;100.00
19748;BME280;10032;51.386;12.516;2023-04-16T09:37:13;100393.66;;;11.99;100.00
19748;BME280;10032;51.386;12.516;2023-04-16T09:39:41;100386.91;;;12.01;100.00
19748;BME280;10032;51.386;12.516;2023-04-16T09:42:07;100391.25;;;12.02;100.00
19748;BME280;10032;51.386;12.516;2023-04-16T09:44:36;100397.16;;;11.99;100.00
19748;BME280;10032;51.386;12.516;2023-04-16T09:47:06;100393.91;;;11.97;100.00
19748;BME280;10032;51.386;12.516;2023-04-16T09:49:33;100393.06;;;11.97;100.00
19748;BME280;10032;51.386;12.516;2023-04-16T09:52:00;100403.63;;;11.93;100.00
19748;BME280;10032;51.386;12.516;2023-04-16T09:54:26;100406.56;;;11.92;100.00
19748;BME280;10032;51.386;12.516;2023-04-16T09:56:55;100401.72;;;11.94;100.00
19748;BME280;10032;51.386;12.516;2023-04-16T09:59:22;100407.72;;;11.96;100.00
19748;BME280;10032;51.386;12.516;2023-04-16T10:01:48;100407.41;;;11.92;100.00
19748;BME280;10032;51.386;12.516;2023-04-16T10:04:15;100407.41;;;11.92;100.00
19748;BME280;10032;51.386;12.516;2023-04-16T10:06:40;100411.19;;;11.91;100.00
19748;BME280;10032;51.386;12.516;2023-04-16T10:09:07;100417.44;;;11.92;100.00
19748;BME280;10032;51.386;12.516;2023-04-16T10:11:33;100417.75;;;11.95;100.00
19748;BME280;10032;51.386;12.516;2023-04-16T10:13:59;100418.41;;;12.02;100.00
19748;BME280;10032;51.386;12.516;2023-04-16T10:16:25;100411.13;;;12.08;100.00
19748;BME280;10032;51.386;12.516;2023-04-16T10:18:52;100415.81;;;12.12;100.00
19748;BME280;10032;51.386;12.516;2023-04-16T10:21:18;100417.22;;;12.15;100.00
19748;BME280;10032;51.386;12.516;2023-04-16T10:23:44;100419.16;;;12.19;100.00
19748;BME280;10032;51.386;12.516;2023-04-16T10:26:10;100423.25;;;12.22;100.00
19748;BME280;10032;51.386;12.516;2023-04-16T10:28:36;100426.88;;;12.27;100.00
19748;BME280;10032;51.386;12.516;2023-04-16T10:31:03;100422.56;;;12.31;100.00
19748;BME280;10032;51.386;12.516;2023-04-16T10:33:31;100426.66;;;12.34;100.00
19748;BME280;10032;51.386;12.516;2023-04-16T10:38:48;100426.47;;;12.19;100.00
19748;BME280;10032;51.386;12.516;2023-04-16T10:41:14;100428.75;;;12.05;100.00
19748;BME280;10032;51.386;12.516;2023-04-16T10:43:47;100430.28;;;11.96;100.00
19748;BME280;10032;51.386;12.516;2023-04-16T10:48:45;100434.56;;;11.92;100.00
19748;BME280;10032;51.386;12.516;2023-04-16T10:51:32;100438.84;;;11.88;100.00
19748;BME280;10032;51.386;12.516;2023-04-16T10:56:34;100437.63;;;11.79;100.00
19748;BME280;10032;51.386;12.516;2023-04-16T10:59:02;100435.97;;;11.78;100.00
19748;BME280;10032;51.386;12.516;2023-04-16T11:01:50;100435.75;;;11.80;100.00
19748;BME280;10032;51.386;12.516;2023-04-16T11:12:40;100442.81;;;11.81;100.00
19748;BME280;10032;51.386;12.516;2023-04-16T11:15:05;100436.66;;;11.85;100.00
19748;BME280;10032;51.386;12.516;2023-04-16T11:17:36;100436.66;;;11.85;100.00
19748;BME280;10032;51.386;12.516;2023-04-16T11:20:02;100446.56;;;11.96;100.00
19748;BME280;10032;51.386;12.516;2023-04-16T11:22:29;100437.91;;;11.99;100.00
19748;BME280;10032;51.386;12.516;2023-04-16T11:24:55;100441.13;;;11.96;100.00
19748;BME280;10032;51.386;12.516;2023-04-16T11:27:24;100445.63;;;12.07;100.00
19748;BME280;10032;51.386;12.516;2023-04-16T11:30:00;100445.38;;;12.09;100.00
19748;BME280;10032;51.386;12.516;2023-04-16T11:32:26;100441.91;;;12.13;100.00
19748;BME280;10032;51.386;12.516;2023-04-16T11:34:52;100443.22;;;12.11;100.00
19748;BME280;10032;51.386;12.516;2023-04-16T11:37:20;100456.41;;;12.02;100.00
19748;BME280;10032;51.386;12.516;2023-04-16T11:39:50;100456.66;;;12.01;100.00
19748;BME280;10032;51.386;12.516;2023-04-16T11:42:20;100459.88;;;11.98;100.00
19748;BME280;10032;51.386;12.516;2023-04-16T11:44:51;100462.47;;;12.09;100.00
19748;BME280;10032;51.386;12.516;2023-04-16T11:47:17;100458.75;;;12.15;100.00
19748;BME280;10032;51.386;12.516;2023-04-16T11:49:42;100460.97;;;12.18;100.00
19748;BME280;10032;51.386;12.516;2023-04-16T11:52:08;100464.25;;;12.20;100.00
19748;BME280;10032;51.386;12.516;2023-04-16T11:54:33;100466.16;;;12.20;100.00
19748;BME280;10032;51.386;12.516;2023-04-16T11:57:00;100468.66;;;12.26;100.00
19748;BME280;10032;51.386;12.516;2023-04-16T11:59:28;100469.00;;;12.30;100.00
19748;BME280;10032;51.386;12.516;2023-04-16T12:01:54;100474.16;;;12.31;100.00
19748;BME280;10032;51.386;12.516;2023-04-16T12:04:24;100471.22;;;12.33;100.00
19748;BME280;10032;51.386;12.516;2023-04-16T12:07:07;100479.03;;;12.29;100.00
19748;BME280;10032;51.386;12.516;2023-04-16T12:09:33;100473.69;;;12.34;100.00
19748;BME280;10032;51.386;12.516;2023-04-16T12:12:02;100474.16;;;12.31;100.00
19748;BME280;10032;51.386;12.516;2023-04-16T12:14:27;100475.25;;;12.30;100.00
19748;BME280;10032;51.386;12.516;2023-04-16T12:16:53;100476.41;;;12.34;100.00
19748;BME280;10032;51.386;12.516;2023-04-16T12:19:19;100468.88;;;12.41;100.00
19748;BME280;10032;51.386;12.516;2023-04-16T12:21:47;100478.50;;;12.27;100.00
19748;BME280;10032;51.386;12.516;2023-04-16T12:24:15;100482.25;;;12.26;100.00
19748;BME280;10032;51.386;12.516;2023-04-16T12:26:46;100477.41;;;12.28;100.00
19748;BME280;10032;51.386;12.516;2023-04-16T12:29:23;100484.00;;;12.32;100.00
19748;BME280;10032;51.386;12.516;2023-04-16T12:31:50;100484.16;;;12.26;100.00
19748;BME280;10032;51.386;12.516;2023-04-16T12:34:17;100492.63;;;12.29;100.00
19748;BME280;10032;51.386;12.516;2023-04-16T12:36:44;100488.78;;;12.25;100.00
19748;BME280;10032;51.386;12.516;2023-04-16T12:39:10;100498.00;;;12.24;100.00
19748;BME280;10032;51.386;12.516;2023-04-16T12:41:38;100488.63;;;12.15;100.00
19748;BME280;10032;51.386;12.516;2023-04-16T12:46:31;100493.06;;;12.21;100.00